Flight Track Log - Related Links

Times and Time Zones

All times are in EDT time to prevent confusion due to time zone crossing. See the SWA286 flight status page for this flight to view local times or setup timezone preferences in your user account.

Time Position Orientation Groundspeed Altitude Reporting Facility
EDT Latitude Longitude Course Direction KTS MPH feet Rate Location/Type
Thu 07:57:56 PM 28.5000 -81.2667 28° Northeast 218 251 2,800  Level Orlando TRACON
Thu 07:58:56 PM 28.5500 -81.2500 16° North 259 298 5,100 2,500 Climbing Orlando TRACON
Thu 07:59:56 PM 28.6333 -81.2667 350° North 266 306 7,800 2,168 Climbing Orlando TRACON
Thu 08:01:31 PM 28.7433 -81.3036 344° North 294 338 10,700 2,323 Climbing Jacksonville Center
Thu 08:02:31 PM 28.8353 -81.3258 348° North 319 367 13,800 2,600 Climbing Jacksonville Center
Thu 08:03:31 PM 28.9317 -81.3481 349° North 332 382 15,900 2,050 Climbing Jacksonville Center
Thu 08:04:31 PM 29.0300 -81.3728 348° North 345 397 17,900 2,000 Climbing Jacksonville Center
Thu 08:05:31 PM 29.1325 -81.3972 348° North 366 421 19,900 1,750 Climbing Jacksonville Center
Thu 08:06:31 PM 29.2475 -81.4028 358° North 388 447 21,400 1,750 Climbing Jacksonville Center
Thu 08:07:31 PM 29.3625 -81.4178 354° North 407 468 23,400 1,900 Climbing Jacksonville Center
Thu 08:08:31 PM 29.4794 -81.4303 355° North 412 474 25,200 1,550 Climbing Jacksonville Center
Thu 08:09:31 PM 29.6028 -81.4403 356° North 424 488 26,500 1,300 Climbing Jacksonville Center
Thu 08:10:31 PM 29.7261 -81.4528 355° North 435 501 27,800 1,250 Climbing Jacksonville Center
Thu 08:11:31 PM 29.8514 -81.4628 356° North 445 512 29,000 1,200 Climbing Jacksonville Center
Thu 08:12:31 PM 29.9831 -81.4706 357° North 451 519 30,200 1,400 Climbing Jacksonville Center
Thu 08:13:31 PM 30.1122 -81.4542 North 456 525 31,800 1,150 Climbing Jacksonville Center
Thu 08:14:31 PM 30.2436 -81.4378 North 466 536 32,500 800 Climbing Jacksonville Center
Thu 08:15:31 PM 30.3792 -81.4214 North 472 543 33,400 900 Climbing Jacksonville Center
Thu 08:16:31 PM 30.5147 -81.4047 North 478 550 34,300 800 Climbing Jacksonville Center
Thu 08:17:31 PM 30.6500 -81.3858 North 483 556 35,000 350 Climbing Jacksonville Center
Thu 08:18:31 PM 30.7811 -81.3425 16° North 483 556 35,000  Level Jacksonville Center
Thu 08:19:31 PM 30.9075 -81.2656 28° Northeast 489 563 35,000  Level Jacksonville Center
Thu 08:20:31 PM 31.0319 -81.1881 28° Northeast 494 568 35,000  Level Jacksonville Center
Thu 08:21:31 PM 31.1581 -81.1131 27° Northeast 499 574 35,000  Level Jacksonville Center
Thu 08:22:31 PM 31.2844 -81.0353 28° Northeast 504 580 35,000  Level Jacksonville Center
Thu 08:23:31 PM 31.4125 -80.9547 28° Northeast 507 583 35,000  Level Jacksonville Center
Thu 08:24:31 PM 31.5514 -80.8739 26° Northeast 512 589 35,000  Level Jacksonville Center
Thu 08:25:31 PM 31.6650 -80.8031 28° Northeast 507 583 35,000  Level Jacksonville Center
Thu 08:26:31 PM 31.8033 -80.7194 27° Northeast 507 583 35,000  Level Jacksonville Center
Thu 08:27:31 PM 31.9294 -80.6431 27° Northeast 507 583 35,000  Level Jacksonville Center
Thu 08:28:31 PM 32.0450 -80.5717 28° Northeast 507 583 35,000  Level Jacksonville Center
Thu 08:29:31 PM 32.1833 -80.4844 28° Northeast 506 582 35,000  Level Jacksonville Center
Thu 08:30:31 PM 32.3069 -80.4050 29° Northeast 507 583 35,000  Level Jacksonville Center
Thu 08:31:31 PM 32.4242 -80.3108 34° Northeast 507 583 35,000  Level Jacksonville Center
Thu 08:32:31 PM 32.5389 -80.2067 37° Northeast 512 589 35,000  Level Jacksonville Center
Thu 08:33:31 PM 32.6556 -80.1019 37° Northeast 518 596 35,000  Level Jacksonville Center
Thu 08:34:31 PM 32.7700 -79.9972 38° Northeast 518 596 35,000  Level Jacksonville Center
Thu 08:35:31 PM 32.8867 -79.8919 37° Northeast 523 602 35,000  Level Jacksonville Center
Thu 08:36:31 PM 33.0031 -79.7889 37° Northeast 523 602 35,000  Level Jacksonville Center
Thu 08:37:31 PM 33.1194 -79.6833 37° Northeast 523 602 35,000  Level Jacksonville Center
Thu 08:38:31 PM 33.2356 -79.5772 37° Northeast 523 602 35,000  Level Jacksonville Center
Thu 08:39:31 PM 33.3517 -79.4686 38° Northeast 523 602 35,000  Level Jacksonville Center
Thu 08:40:31 PM 33.4678 -79.3644 37° Northeast 523 602 35,000  Level Jacksonville Center
Thu 08:42:28 PM 33.6889 -79.1606 37° Northeast 528 608 35,000  Level Washington Center
Thu 08:43:27 PM 33.8047 -79.0531 38° Northeast 528 608 35,000  Level Washington Center
Thu 08:44:27 PM 33.9206 -78.9425 38° Northeast 528 608 35,000  Level Washington Center
Thu 08:45:28 PM 34.0358 -78.8394 37° Northeast 523 602 35,000  Level Washington Center
Thu 08:46:29 PM 34.1514 -78.7336 37° Northeast 523 602 35,000  Level Washington Center
Thu 08:47:27 PM 34.2669 -78.6225 38° Northeast 523 602 35,000  Level Washington Center
Thu 08:48:27 PM 34.3822 -78.5161 37° Northeast 523 602 35,000  Level Washington Center
Thu 08:50:28 PM 34.6169 -78.2922 38° Northeast 523 602 35,000  Level Washington Center
Thu 08:51:29 PM 34.7300 -78.1822 39° Northeast 523 602 35,000  Level Washington Center
Thu 08:52:29 PM 34.8453 -78.0694 39° Northeast 523 602 35,000  Level Washington Center
Thu 08:53:28 PM 34.9600 -77.9592 38° Northeast 523 602 35,000  Level Washington Center
Thu 08:54:29 PM 35.0750 -77.8456 39° Northeast 523 602 35,000  Level Washington Center
Thu 08:55:29 PM 35.1917 -77.7344 38° Northeast 523 602 35,000  Level Washington Center
Thu 08:56:27 PM 35.3064 -77.6206 39° Northeast 523 602 35,000  Level Washington Center
Thu 08:57:28 PM 35.4250 -77.5114 37° Northeast 523 602 35,000  Level Washington Center
Thu 08:58:29 PM 35.5478 -77.4044 35° Northeast 528 608 35,000  Level Washington Center
Thu 08:59:27 PM 35.6681 -77.3000 35° Northeast 533 613 35,000  Level Washington Center
Thu 09:00:27 PM 35.7886 -77.1925 36° Northeast 533 613 35,000  Level Washington Center
Thu 09:01:28 PM 35.8919 -77.0969 37° Northeast 523 602 35,000  Level Washington Center
Thu 09:02:29 PM 36.0164 -76.9889 35° Northeast 523 602 35,000  Level Washington Center
Thu 09:03:27 PM 36.1386 -76.8831 35° Northeast 528 608 35,000  Level Washington Center
Thu 09:04:27 PM 36.2608 -76.7717 36° Northeast 533 613 35,000  Level Washington Center
Thu 09:05:28 PM 36.3828 -76.6653 35° Northeast 533 613 35,000  Level Washington Center
Thu 09:06:28 PM 36.5047 -76.5558 36° Northeast 533 613 35,000  Level Washington Center
Thu 09:07:29 PM 36.6286 -76.4461 35° Northeast 538 619 35,000  Level Washington Center
Thu 09:08:27 PM 36.7608 -76.3206 37° Northeast 543 625 35,000  Level Washington Center
Thu 09:09:28 PM 36.8806 -76.2125 36° Northeast 543 625 35,000  Level Washington Center
Thu 09:10:28 PM 37.0058 -76.1433 24° Northeast 543 625 35,000  Level Washington Center
Thu 09:11:29 PM 37.1397 -76.0714 23° Northeast 523 602 35,000  Level Washington Center
Thu 09:12:27 PM 37.2736 -75.9886 26° Northeast 518 596 35,000  Level Washington Center
Thu 09:13:28 PM 37.4031 -75.9056 27° Northeast 518 596 35,000  Level Washington Center
Thu 09:14:29 PM 37.5369 -75.8197 27° Northeast 518 596 35,000  Level Washington Center
Thu 09:15:27 PM 37.6683 -75.7361 27° Northeast 518 596 35,000  Level Washington Center
Thu 09:16:28 PM 37.8039 -75.6547 25° Northeast 525 604 35,000 -50 Level Washington Center
Thu 09:17:27 PM 37.9333 -75.5628 29° Northeast 525 604 34,900  Descending Washington Center
Thu 09:18:28 PM 38.0647 -75.4653 30° Northeast 537 618 35,000 49 Climbing Washington Center
Thu 09:19:29 PM 38.1917 -75.3644 32° Northeast 542 624 35,000  Level Washington Center
Thu 09:20:29 PM 38.3353 -75.2528 31° Northeast 542 624 35,000  Level Washington Center
Thu 09:21:27 PM 38.4664 -75.1542 30° Northeast 537 618 35,000  Level Washington Center
Thu 09:22:27 PM 38.5953 -75.0525 32° Northeast 537 618 35,000 -49 Level Washington Center
Thu 09:23:29 PM 38.7239 -74.9503 32° Northeast 537 618 34,900  Descending Washington Center
Thu 09:24:27 PM 38.8525 -74.8586 29° Northeast 537 618 35,000  Climbing Washington Center
Thu 09:25:29 PM 38.9811 -74.7531 33° Northeast 537 618 34,900 -934 Descending Washington Center
Thu 09:26:29 PM 39.1097 -74.6553 31° Northeast 537 618 33,100 -2,746 Descending Washington Center
Thu 09:27:27 PM 39.2400 -74.5492 32° Northeast 537 618 29,500 -3,408 Descending Washington Center
Thu 09:29:18 PM 39.4339 -74.2814 47° Northeast 604 695 23,500 -2,982 Descending New York Center
Thu 09:30:18 PM 39.5344 -74.1275 50° Northeast 578 665 21,000 -1,250 Descending New York Center
Thu 09:31:18 PM 39.6239 -73.9833 51° Northeast 539 620 21,000  Level New York Center
Thu 09:32:18 PM 39.7153 -73.8392 50° Northeast 522 601 21,000 -150 Level New York Center
Thu 09:33:18 PM 39.8064 -73.6972 50° Northeast 510 587 20,700 -700 Descending New York Center
Thu 09:34:18 PM 39.8933 -73.5575 51° Northeast 505 581 19,600 -1,650 Descending New York Center
Thu 09:35:58 PM 40.0389 -73.3794 43° Northeast 444 511 16,300 -2,311 Descending Boston Center
Thu 09:36:59 PM 40.1225 -73.2808 42° Northeast 409 471 13,400 -2,975 Descending Boston Center
Thu 09:37:59 PM 40.2136 -73.1706 43° Northeast 374 430 10,300 -1,686 Descending Boston Center
Thu 09:39:00 PM 40.2781 -73.0936 42° Northeast 316 364 10,000 -590 Descending Boston Center
Thu 09:40:01 PM 40.3372 -73.0219 43° Northeast 292 336 9,100 -878 Descending Boston Center
Thu 09:41:03 PM 40.4022 -72.9689 32° Northeast 281 323 8,200 -1,131 Descending Boston Center
Thu 09:42:03 PM 40.4731 -72.9469 13° North 263 303 6,800 -1,355 Descending Boston Center
Thu 09:43:07 PM 40.5456 -72.9239 14° North 265 305 5,400 -1,113 Descending Boston Center
Thu 09:44:07 PM 40.6164 -72.9008 14° North 263 303 4,500 -1,000 Descending Boston Center
Thu 09:45:07 PM 40.6808 -72.9100 354° North 257 296 3,400 -738 Descending Boston Center
Thu 09:46:09 PM 40.7322 -72.9533 327° Northwest 235 270 3,000 -780 Descending Boston Center
Thu 09:47:10 PM 40.7767 -72.9875 330° Northwest 206 237 1,800 -738 Descending Boston Center
Thu 09:48:11 PM 40.8131 -73.0139 331° Northwest 172 198 1,500 -347 Descending Boston Center
Thu 09:49:11 PM 40.8311 -73.0469 306° West 137 158 1,100 -545 Descending Boston Center
Thu 09:50:12 PM 40.8117 -73.0839 235° Southwest 129 148 400 -393 Descending Boston Center
Thu 09:51:13 PM 40.7858 -73.1172 224° Southwest 129 148 300 -98 Descending Boston Center

Login

Don't have an account? Register now (free) for customized features, flight alerts, and more!